En poursuivant votre navigation sur ce site, vous acceptez l'utilisation de cookies pour vous proposer des contenus et services adaptés. Mentions légales.
Texte à méditer :  

27/11/2021 l'Ain en vigilance neige/verglas❄️ demain dimanche 28/11  : cliquez ICI
21/11/2021 Mise à jour des tableaux d'analyses décadaires : rubrique climatologie
03/11/2021 Mise en ligne de la synthèse climatologique d'octobre 2021 : cliquez ICI
02/11/2021 Mise à jour des tableaux d'analyses décadaires, mensuelles et annuelles : rubrique climatologie
  

NOAA COMPLET DU MOIS

Si l'entête du tableau ne s'affiche pas correctement, => actualisez la page (F5 avec Internet Explorer, Chrome...).
Utilisez l'ascenseur sur la droite des lignes du tableau pour faire défiler verticalement les jours du mois.

TABLEAU DES DONNEES COMPLETES NOAA de OCTOBRE 2021

DATE TEMPERATURE
sous abri
TEMPARATURE 
au sol
VENT  et  Indice de Refroidissement Eolien  PRECIPITATIONS (en mm/m2)
et Intensité
PRESSION ATMOSPHERIQUE (en hPa) HUMIDITE de l'AIR RADIATIONS SOLAIRES (en W/m2)
Mini Moy. Maxi Mini Moy. Maxi Moyen Rafale I.R.E.
Minii
Précip. jour Cumul mois Intensité Maxi Mini Moy. Maxi Mini Moy. Maxi Pic maxi du jour Total jour
01/10/21 5.7° 13.8° 24.1° 6.1° 14.8° 26.1° 4.3km/h dir SE 32.2km/h dir SE 4.9° 0.2 0.2 1016.6 1020.1 1024.5 56% 81.8% 94% 668 48 773
02/10/21 10.8° 18.1° 24.2° 10.6° 18.5° 26.1° 11.3km/h dir SE 53.1km/h dir SE 10.9° 0 0.2 1008.1 1012.9 1017.3 52% 77.6% 94% 758 42 533
03/10/21 11.5° 17.3° 21° 12.2° 17.2° 21.1° 12.2km/h dir SE 57.9km/h dir SE 11.3° 54.2 54.4 26mm/h 1003.4 1008 1016.3 59% 77.8% 94% 264 7 499
04/10/21 10.8° 11.5° 12.7° 11.7° 12.9° 15.6° 2.3km/h dir OSO 11.3km/h dir ENE 10.3° 27.4 81.8 9.2mm/h 1016 1017.5 1019.6 93% 94.3% 95% 257 10 700
05/10/21 9.3° 11.9° 16.3° 9.4° 13.2° 20° 5.8km/h dir SE 41.8km/h dir SE 9.1° 3.2 85 5mm/h 1011.8 1014.3 1018.3 78% 91.9% 95% 680 23 231
06/10/21 7.4° 11.6° 16.3° 7.8° 13° 20.6° 3.1km/h dir OSO 22.5km/h dir OSO 7.4° 0.4 85.4 1018.3 1022.6 1025.6 64% 86.9% 95% 923 37 124
07/10/21 5.4° 11° 16.9° 5.6° 12.3° 20.6° 8.4km/h dir O 37km/h dir N 5.4° 0.2 85.6 1022.4 1024.1 1025.5 66% 84.8% 95% 812 50 757
08/10/21 5.7° 10.1° 14.9° 5.6° 11.2° 18.3° 2.7km/h dir ESE 19.3km/h dir NNE 5.8° 0.2 85.8 1021.4 1022.3 1023.5 81% 90.5% 95% 740 24 660
09/10/21 5.4° 9.1° 13.1° 6.1° 10.3° 15.6° 1.3km/h dir O 9.7km/h dir OSO 5.4° 0 85.8 1021.3 1022.5 1023.6 89% 93.8% 95% 204 12 828
10/10/21 5.9° 14.5° 5.6° 10.2° 17.8° 2.3km/h dir OSO 12.9km/h dir OSO 5.9° 0.4 86.2 1023.3 1024 1025.4 80% 92.5% 95% 589 26 376
11/10/21 4.3° 9.6° 16.6° 3.9° 10.5° 20.6° 5.8km/h dir O 27.4km/h dir O 4.2° 0.2 86.4 1023.7 1024.8 1026.1 63% 85.8% 95% 638 45 511
12/10/21 6.4° 10.1° 15.4° 11° 18.9° 7.6km/h dir O 30.6km/h dir O 6.4° 0 86.4 1020.2 1022.3 1024.7 69% 88.4% 95% 712 33 599
13/10/21 6.5° 10.1° 14° 6.1° 10.8° 17.2° 7.2km/h dir O 32.2km/h dir NNE 5.8° 0.2 86.6 1021.3 1023.3 1025.6 67% 85.3% 94% 744 39 735
14/10/21 2.1° 6.7° 13.9° 1.1° 17.8° 1.6km/h dir ENE 12.9km/h dir SE 1.7° 0.2 86.8 1023 1025.4 1027.5 64% 88% 95% 879 35 960
15/10/21 8.8° 18° 1.7° 8.8° 22.2° 2.6km/h dir ESE 16.1km/h dir O 1.8° 0.2 87 1017.8 1019.7 1023 54% 84.2% 95% 784 44 830
16/10/21 3.8° 6.9° 10.8° 2.8° 7.3° 13.3° 1km/h dir ENE 8km/h dir SSO 3.8° 0.2 87.2 1018.7 1019.6 1020.6 89% 93.8% 95% 420 13 712
17/10/21 1.4° 8.7° 18.4° 1.7° 9.2° 21.1° 1.1km/h dir E 9.7km/h dir OSO 1.4° 0.2 87.4 1019.3 1020.3 1021.8 68% 89% 95% 654 43 720
18/10/21 3.2° 10.8° 19.5° 2.8° 10.9° 22.8° 1.4km/h dir ENE 11.3km/h dir ESE 3.2° 0.2 87.6 1021.6 1023.5 1025.4 64% 86.8% 95% 656 42 120
19/10/21 8.8° 14.9° 21.1° 7.2° 14.9° 23.3° 8.7km/h dir SE 38.6km/h dir SSE 8.6° 0.2 87.8 1022.4 1024.3 1025.7 53% 77.9% 95% 582 40 828
20/10/21 15.2° 17.4° 20.1° 14.4° 17.1° 21.1° 21.1km/h dir SE 67.6km/h dir SSE 13.4° 0 87.8 1009 1016.6 1022.4 67% 76% 83% 480 19 130
21/10/21 11.9° 15° 18.2° 9.4° 15.5° 20.6° 9.7km/h dir S 77.2km/h dir SE 11.9° 13.2 101 52.6mm/h 1008 1014.7 1017.3 60% 76.6% 93% 812 30 584
22/10/21 4.5° 10.3° 13.1° 3.3° 11.4° 18.3° 5.8km/h dir O 25.7km/h dir NNE 3.9° 1.6 102.6 2.6mm/h 1017.2 1021.1 1025.5 65% 84.8% 94% 772 40 006
23/10/21 0.8° 6.6° 14.2° 0.6° 17.8° 3.4km/h dir O 19.3km/h dir NNE 0.3° 0.2 102.8 1024.9 1025.6 1026.7 60% 85.6% 95% 575 41 276
24/10/21 0.6° 8.5° 20.2° 0.6° 8.4° 22.8° 1.8km/h dir ESE 11.3km/h dir ESE 0.2° 0.2 103 1022 1024.1 1025.8 57% 84.8% 95% 557 41 609
25/10/21 3.5° 10.1° 19° 2.8° 10.3° 21.7° 2.1km/h dir E 12.9km/h dir SE 2.8° 0.2 103.2 1020.1 1021.6 1022.9 62% 86% 95% 538 39 446
26/10/21 8.4° 11.9° 16.8° 6.7° 12° 21.1° 2.4km/h dir OSO 17.7km/h dir OSO 8.5° 0.4 103.6 1022.7 1023.9 1025.3 71% 89.6% 95% 816 24 246
27/10/21 6.2° 8.1° 10.1° 11.7° 1.9km/h dir SE 11.3km/h dir E 5.7° 0.2 103.8 1022.7 1024.2 1025.7 93% 94.4% 95% 165 10 179
28/10/21 3.9° 10.8° 19.7° 4.4° 11.3° 21.1° 4.2km/h dir SE 32.2km/h dir SSE 3.9° 0.2 104 1014.7 1019.1 1022.8 53% 81.6% 95% 540 37 333
29/10/21 10.4° 14.6° 19.9° 8.3° 13.7° 21.1° 9km/h dir SE 46.7km/h dir SE 9.8° 0 104 1009.1 1011.7 1014.7 53% 68.3% 80% 596 32 270
30/10/21 10.8° 13.9° 17.9° 10.6° 14.1° 19.4° 8.7km/h dir SE 41.8km/h dir SSE 10.6° 4 108 1.6mm/h 1003.1 1006.2 1010.2 66% 83.8% 94% 364 11 248
31/10/21 13.2° 16.4° 21.1° 13.3° 17.2° 23.3° 11.6km/h dir SE 48.3km/h dir SSE 13° 13.6 121.6 39.2mm/h 1004 1006.6 1010.6 68% 85.1% 94% 578 33 280

RETOUR ACCUEIL


Date de création : 02/11/2021 : 09:56
Catégorie : ANNEE 2020 - MOIS PASSES - OCTOBRE 2021
Page lue 43 fois


Réactions à cet article


Personne n'a encore laissé de commentaire.
Soyez donc le premier !